createdAt,value
2018-06-30T00:02:13.987Z,52.85
2018-06-30T00:04:48.369Z,52.66
2018-06-30T00:07:17.502Z,52.80
2018-06-30T00:09:46.592Z,54.43
2018-06-30T00:12:15.766Z,54.88
2018-06-30T00:14:44.902Z,53.99
2018-06-30T00:17:14.274Z,54.40
2018-06-30T00:19:43.379Z,54.92
2018-06-30T00:22:12.488Z,55.53
2018-06-30T00:24:41.609Z,54.64
2018-06-30T00:27:15.830Z,53.42
2018-06-30T00:29:44.969Z,54.91
2018-06-30T00:32:14.118Z,54.77
2018-06-30T00:34:43.217Z,55.21
2018-06-30T00:37:12.314Z,55.22
2018-06-30T00:39:41.434Z,55.01
2018-06-30T00:42:10.555Z,56.11
2018-06-30T00:44:39.657Z,56.18
2018-06-30T00:47:08.757Z,55.61
2018-06-30T00:49:37.865Z,55.93
2018-06-30T00:52:07.017Z,55.31
2018-06-30T00:54:36.570Z,54.83
2018-06-30T00:57:05.718Z,54.99
2018-06-30T00:59:34.845Z,56.01
2018-06-30T01:02:03.963Z,56.90
2018-06-30T01:04:33.064Z,57.23
2018-06-30T01:07:02.173Z,57.85
2018-06-30T01:09:31.301Z,57.47
2018-06-30T01:12:00.430Z,56.59
2018-06-30T01:14:29.554Z,58.41
2018-06-30T01:16:58.727Z,59.10
2018-06-30T01:19:27.837Z,58.92
2018-06-30T01:21:56.949Z,58.98
2018-06-30T01:24:26.042Z,59.39
2018-06-30T01:26:55.160Z,59.12
2018-06-30T01:29:24.286Z,59.52
2018-06-30T01:31:53.374Z,59.48
2018-06-30T01:34:22.473Z,58.28
2018-06-30T01:36:51.589Z,59.78
2018-06-30T01:39:20.677Z,59.67
2018-06-30T01:41:49.801Z,59.74
2018-06-30T01:44:18.929Z,60.61
2018-06-30T01:46:48.078Z,60.74
2018-06-30T01:49:17.185Z,59.14
2018-06-30T01:51:46.337Z,58.20
2018-06-30T01:54:15.442Z,60.14
2018-06-30T01:56:44.554Z,59.10
2018-06-30T01:59:13.665Z,59.54
2018-06-30T02:01:42.757Z,60.34
2018-06-30T02:04:11.862Z,59.73
2018-06-30T02:06:40.962Z,60.05
2018-06-30T02:09:11.329Z,61.36
2018-06-30T02:11:40.846Z,61.46
2018-06-30T02:14:10.181Z,61.46
2018-06-30T02:16:39.293Z,61.65
2018-06-30T02:19:08.408Z,62.39
2018-06-30T02:21:37.541Z,61.14
2018-06-30T02:24:06.666Z,60.75
2018-06-30T02:26:35.855Z,60.88
2018-06-30T02:29:04.955Z,61.93
2018-06-30T02:31:34.071Z,61.98
2018-06-30T02:34:03.237Z,61.29
2018-06-30T02:36:32.345Z,64.41
2018-06-30T02:39:01.468Z,64.43
2018-06-30T02:41:30.566Z,63.27
2018-06-30T02:43:59.693Z,62.85
2018-06-30T02:46:28.806Z,62.52
2018-06-30T02:48:57.900Z,63.64
2018-06-30T02:51:26.994Z,63.29
2018-06-30T02:53:56.101Z,62.18
2018-06-30T02:56:25.208Z,62.74
2018-06-30T02:58:54.345Z,62.06
2018-06-30T03:01:23.452Z,63.01
2018-06-30T03:03:52.578Z,62.82
2018-06-30T03:06:21.691Z,62.70
2018-06-30T03:08:50.814Z,63.18
2018-06-30T03:11:19.925Z,65.37
2018-06-30T03:13:49.047Z,63.72
2018-06-30T03:16:18.504Z,64.26
2018-06-30T03:18:48.464Z,63.35
2018-06-30T03:21:17.595Z,63.77
2018-06-30T03:23:46.721Z,64.75
2018-06-30T03:26:15.829Z,65.34
2018-06-30T03:28:44.931Z,65.05
2018-06-30T03:31:14.031Z,64.63
2018-06-30T03:33:43.141Z,64.82
2018-06-30T03:36:12.246Z,64.76
2018-06-30T03:38:41.366Z,65.71
2018-06-30T03:41:10.442Z,65.56
2018-06-30T03:43:39.545Z,65.99
2018-06-30T03:46:08.648Z,65.04
2018-06-30T03:48:37.731Z,65.34
2018-06-30T03:51:06.925Z,64.59
2018-06-30T03:53:42.218Z,65.12
2018-06-30T03:56:11.313Z,64.92
2018-06-30T03:58:40.429Z,63.76
2018-06-30T04:01:09.553Z,65.34
2018-06-30T04:03:38.667Z,63.92
2018-06-30T04:06:07.785Z,64.89
2018-06-30T04:08:36.877Z,65.44
2018-06-30T04:11:05.997Z,65.27
2018-06-30T04:13:35.106Z,65.31
2018-06-30T04:16:04.353Z,65.79
2018-06-30T04:18:33.547Z,65.54
2018-06-30T04:21:02.654Z,64.99
2018-06-30T04:23:31.786Z,65.03
2018-06-30T04:26:00.914Z,65.59
2018-06-30T04:28:30.017Z,66.04
2018-06-30T04:30:59.126Z,65.48
2018-06-30T04:33:28.282Z,64.74
2018-06-30T04:35:57.409Z,64.85
2018-06-30T04:38:26.517Z,66.03
2018-06-30T04:40:55.618Z,64.80
2018-06-30T04:43:24.729Z,65.34
2018-06-30T04:45:53.833Z,66.07
2018-06-30T04:48:22.941Z,66.38
2018-06-30T04:50:52.073Z,65.66
2018-06-30T04:53:21.165Z,66.23
2018-06-30T04:55:50.282Z,65.54
2018-06-30T04:58:19.401Z,65.53
2018-06-30T05:00:48.541Z,64.87
2018-06-30T05:03:17.717Z,66.43
2018-06-30T05:05:46.839Z,64.94
2018-06-30T05:08:16.362Z,65.41
2018-06-30T05:10:45.504Z,64.59
2018-06-30T05:13:14.609Z,64.40
2018-06-30T05:15:43.718Z,64.51
2018-06-30T05:18:12.826Z,64.69
2018-06-30T05:20:41.930Z,65.26
2018-06-30T05:23:11.053Z,64.17
2018-06-30T05:25:40.203Z,63.23
2018-06-30T05:28:09.630Z,65.28
2018-06-30T05:30:38.729Z,64.61
2018-06-30T05:33:08.147Z,65.28
2018-06-30T05:35:37.309Z,64.24
2018-06-30T05:38:06.797Z,64.58
2018-06-30T05:40:35.961Z,64.75
2018-06-30T05:43:05.345Z,63.96
2018-06-30T05:45:34.457Z,63.80
2018-06-30T05:48:03.583Z,63.57
2018-06-30T05:50:32.801Z,64.65
2018-06-30T05:53:01.894Z,63.21
2018-06-30T05:55:31.050Z,63.66
2018-06-30T05:58:00.149Z,62.81
2018-06-30T06:00:29.261Z,63.53
2018-06-30T06:02:58.390Z,63.27
2018-06-30T06:05:27.501Z,62.41
2018-06-30T06:07:56.614Z,63.42
2018-06-30T06:10:25.746Z,64.23
2018-06-30T06:12:54.886Z,64.85
2018-06-30T06:15:24.162Z,64.69
2018-06-30T06:17:53.153Z,64.29
2018-06-30T06:20:22.260Z,63.35
2018-06-30T06:22:53.742Z,63.83
2018-06-30T06:25:22.849Z,63.49
2018-06-30T06:27:51.958Z,62.99
2018-06-30T06:30:23.081Z,63.23
2018-06-30T06:32:58.233Z,62.37
2018-06-30T06:35:27.440Z,62.02
2018-06-30T06:37:56.561Z,62.75
2018-06-30T06:40:25.693Z,61.14
2018-06-30T06:42:54.801Z,61.92
2018-06-30T06:45:23.973Z,60.38
2018-06-30T06:47:53.114Z,60.64
2018-06-30T06:50:22.245Z,59.14
2018-06-30T06:52:52.386Z,59.80
2018-06-30T06:55:21.529Z,59.20
2018-06-30T06:57:50.662Z,58.43
2018-06-30T07:00:19.829Z,58.38
2018-06-30T07:02:48.950Z,57.52
2018-06-30T07:05:18.085Z,55.76
2018-06-30T07:07:47.278Z,56.86
2018-06-30T07:10:16.393Z,56.50
2018-06-30T07:12:45.570Z,53.76
2018-06-30T07:15:14.709Z,55.71
2018-06-30T07:17:47.061Z,54.12
2018-06-30T07:20:17.213Z,53.60
2018-06-30T07:22:47.442Z,52.12
2018-06-30T07:25:16.586Z,51.98
2018-06-30T07:27:45.721Z,51.44
2018-06-30T07:30:18.486Z,51.31
2018-06-30T07:32:47.618Z,51.06
2018-06-30T07:35:16.729Z,53.32
2018-06-30T07:37:45.854Z,49.55
2018-06-30T07:40:14.994Z,52.11
2018-06-30T07:42:44.152Z,52.19
2018-06-30T07:45:13.294Z,50.14
2018-06-30T07:47:42.434Z,43.48
2018-06-30T07:50:11.653Z,41.32
2018-06-30T07:52:40.719Z,46.64
2018-06-30T07:55:11.000Z,44.45
2018-06-30T07:57:40.122Z,42.47
2018-06-30T08:00:09.229Z,41.85
2018-06-30T08:02:38.362Z,41.94
2018-06-30T08:05:07.505Z,41.36
2018-06-30T08:07:36.738Z,41.66
2018-06-30T08:10:05.958Z,41.57
2018-06-30T08:12:35.146Z,40.69
2018-06-30T08:15:04.586Z,41.63
2018-06-30T08:17:33.793Z,40.68
2018-06-30T08:20:02.959Z,39.62
2018-06-30T08:22:32.109Z,39.84
2018-06-30T08:25:01.225Z,42.91
2018-06-30T08:27:30.393Z,41.42
2018-06-30T08:29:59.530Z,41.45
2018-06-30T08:32:28.674Z,42.28
2018-06-30T08:34:57.808Z,41.92
2018-06-30T08:37:27.994Z,41.82
2018-06-30T08:39:57.121Z,41.45
2018-06-30T08:42:26.229Z,42.15
2018-06-30T08:44:55.335Z,39.83
2018-06-30T08:47:24.469Z,41.19
2018-06-30T08:49:53.593Z,40.69
2018-06-30T08:52:22.714Z,40.84
2018-06-30T08:54:51.849Z,39.26
2018-06-30T08:57:21.318Z,38.40
2018-06-30T08:59:50.433Z,38.16
2018-06-30T09:02:19.622Z,38.10
2018-06-30T09:04:48.720Z,36.33
2018-06-30T09:07:17.865Z,35.16
2018-06-30T09:09:47.030Z,38.02
2018-06-30T09:12:17.274Z,36.14
2018-06-30T09:14:46.401Z,36.53
2018-06-30T09:17:15.626Z,35.52
2018-06-30T09:19:44.746Z,34.99
2018-06-30T09:22:13.845Z,35.29
2018-06-30T09:24:42.969Z,35.42
2018-06-30T09:27:12.110Z,38.49
2018-06-30T09:29:41.322Z,36.88
2018-06-30T09:32:10.430Z,35.87
2018-06-30T09:34:39.534Z,34.46
2018-06-30T09:37:08.681Z,34.79
2018-06-30T09:39:38.922Z,36.00
2018-06-30T09:42:08.086Z,35.89
2018-06-30T09:44:37.290Z,38.29
2018-06-30T09:47:06.953Z,38.32
2018-06-30T09:49:36.327Z,38.47
2018-06-30T09:52:06.080Z,37.69
2018-06-30T09:54:35.277Z,36.80
2018-06-30T09:57:06.821Z,37.05
2018-06-30T09:59:35.933Z,35.64
2018-06-30T10:02:05.238Z,36.03
2018-06-30T10:04:34.482Z,34.31
2018-06-30T10:07:03.737Z,34.77
2018-06-30T10:09:32.870Z,34.81
2018-06-30T10:12:01.974Z,34.41
2018-06-30T10:14:32.134Z,33.98
2018-06-30T10:17:01.255Z,35.21
2018-06-30T10:19:30.377Z,34.92
2018-06-30T10:21:59.569Z,35.02
2018-06-30T10:24:28.662Z,35.70
2018-06-30T10:26:57.753Z,35.36
2018-06-30T10:29:26.974Z,35.84
2018-06-30T10:31:56.063Z,34.61
2018-06-30T10:34:25.197Z,36.48
2018-06-30T10:36:54.310Z,34.71
2018-06-30T10:39:23.578Z,36.97
2018-06-30T10:41:52.691Z,36.60
2018-06-30T10:44:21.794Z,35.94
2018-06-30T10:46:50.898Z,36.76
2018-06-30T10:49:20.445Z,36.52
2018-06-30T10:51:49.568Z,35.90
2018-06-30T10:54:18.670Z,36.18
2018-06-30T10:56:47.793Z,34.87
2018-06-30T10:59:16.934Z,36.01
2018-06-30T11:01:46.050Z,35.84
2018-06-30T11:04:15.150Z,35.76
2018-06-30T11:06:44.513Z,36.04
2018-06-30T11:09:13.902Z,35.83
2018-06-30T11:11:43.097Z,36.94
2018-06-30T11:14:12.233Z,38.18
2018-06-30T11:16:41.358Z,37.73
2018-06-30T11:19:11.555Z,36.40
2018-06-30T11:21:40.634Z,36.02
2018-06-30T11:24:09.850Z,36.50
2018-06-30T11:26:38.954Z,35.91
2018-06-30T11:29:08.070Z,35.25
2018-06-30T11:31:37.184Z,35.08
2018-06-30T11:34:06.365Z,35.23
2018-06-30T11:36:35.586Z,35.84
2018-06-30T11:39:08.077Z,36.02
2018-06-30T11:41:37.205Z,36.83
2018-06-30T11:44:06.429Z,34.58
2018-06-30T11:46:35.550Z,34.36
2018-06-30T11:49:05.072Z,34.46
2018-06-30T11:51:34.265Z,35.94
2018-06-30T11:54:03.550Z,36.65
2018-06-30T11:56:33.073Z,36.83
2018-06-30T11:59:02.207Z,36.35
2018-06-30T12:01:31.310Z,34.33
2018-06-30T12:04:00.465Z,35.37
2018-06-30T12:06:29.585Z,33.96
2018-06-30T12:08:58.678Z,32.75
2018-06-30T12:11:27.826Z,34.91
2018-06-30T12:13:56.930Z,33.70
2018-06-30T12:16:26.031Z,32.65
2018-06-30T12:18:55.124Z,32.80
2018-06-30T12:21:24.237Z,32.62
2018-06-30T12:23:53.331Z,32.46
2018-06-30T12:26:22.453Z,32.60
2018-06-30T12:28:51.546Z,32.70
2018-06-30T12:31:20.653Z,32.18
2018-06-30T12:33:49.734Z,32.64
2018-06-30T12:36:18.845Z,33.46
2018-06-30T12:38:47.942Z,33.89
2018-06-30T12:41:17.085Z,34.02
2018-06-30T12:43:46.213Z,34.10
2018-06-30T12:46:15.340Z,33.03
2018-06-30T12:48:44.442Z,33.47
2018-06-30T12:51:13.553Z,34.04
2018-06-30T12:53:42.645Z,33.14
2018-06-30T12:56:11.750Z,31.24
2018-06-30T12:58:40.861Z,31.78
2018-06-30T13:01:09.979Z,31.49
2018-06-30T13:03:39.069Z,33.27
2018-06-30T13:06:08.220Z,31.82
2018-06-30T13:08:37.312Z,31.19
2018-06-30T13:11:06.450Z,30.48
2018-06-30T13:13:35.601Z,30.69
2018-06-30T13:16:04.717Z,31.92
2018-06-30T13:18:33.825Z,30.84
2018-06-30T13:21:02.938Z,31.46
2018-06-30T13:23:32.038Z,30.58
2018-06-30T13:26:01.177Z,30.46
2018-06-30T13:28:30.282Z,30.45
2018-06-30T13:30:59.414Z,30.90
2018-06-30T13:33:28.525Z,30.30
2018-06-30T13:35:57.646Z,29.37
2018-06-30T13:38:26.765Z,30.93
2018-06-30T13:40:55.871Z,31.79
2018-06-30T13:43:25.009Z,33.21
2018-06-30T13:45:54.093Z,33.04
2018-06-30T13:48:23.214Z,33.67
2018-06-30T13:50:52.357Z,33.24
2018-06-30T13:53:21.474Z,32.74
2018-06-30T13:55:50.620Z,33.46
2018-06-30T13:58:19.737Z,33.26
2018-06-30T14:00:48.853Z,33.64
2018-06-30T14:03:17.929Z,32.29
2018-06-30T14:05:47.130Z,31.46
2018-06-30T14:08:16.214Z,31.70
2018-06-30T14:10:45.322Z,30.47
2018-06-30T14:13:14.434Z,31.59
2018-06-30T14:15:43.583Z,31.41
2018-06-30T14:18:12.704Z,30.97
2018-06-30T14:20:41.765Z,31.87
2018-06-30T14:23:10.861Z,31.21
2018-06-30T14:25:39.969Z,31.01
2018-06-30T14:28:09.449Z,31.06
2018-06-30T14:30:38.574Z,31.55
2018-06-30T14:33:07.716Z,30.72
2018-06-30T14:35:36.813Z,31.01
2018-06-30T14:38:05.945Z,30.23
2018-06-30T14:40:35.042Z,31.11
2018-06-30T14:43:04.201Z,31.37
2018-06-30T14:45:33.313Z,30.97
2018-06-30T14:48:02.414Z,32.44
2018-06-30T14:50:31.541Z,30.58
2018-06-30T14:53:00.653Z,30.21
2018-06-30T14:55:29.801Z,29.69
2018-06-30T14:57:58.954Z,30.72
2018-06-30T15:00:28.115Z,29.59
2018-06-30T15:02:57.209Z,29.80
2018-06-30T15:05:26.345Z,30.89
2018-06-30T15:07:55.452Z,30.05
2018-06-30T15:10:25.441Z,29.99
2018-06-30T15:12:54.526Z,30.08
2018-06-30T15:15:23.666Z,29.09
2018-06-30T15:17:52.781Z,28.74
2018-06-30T15:20:21.906Z,29.49
2018-06-30T15:22:51.016Z,28.94
2018-06-30T15:25:20.129Z,30.19
2018-06-30T15:27:49.229Z,29.75
2018-06-30T15:30:18.395Z,29.60
2018-06-30T15:32:47.462Z,29.90
2018-06-30T15:35:16.570Z,30.12
2018-06-30T15:37:45.746Z,30.12
2018-06-30T15:40:14.927Z,30.58
2018-06-30T15:42:44.084Z,30.09
2018-06-30T15:45:13.137Z,29.60
2018-06-30T15:47:42.243Z,28.49
2018-06-30T15:50:11.393Z,28.74
2018-06-30T15:52:40.502Z,28.35
2018-06-30T15:55:09.621Z,28.51
2018-06-30T15:57:38.741Z,29.55
2018-06-30T16:00:08.766Z,27.37
2018-06-30T16:02:37.881Z,28.88
2018-06-30T16:05:07.062Z,27.83
2018-06-30T16:07:36.193Z,27.85
2018-06-30T16:10:05.401Z,29.55
2018-06-30T16:12:34.501Z,28.79
2018-06-30T16:15:03.666Z,28.07
2018-06-30T16:17:32.759Z,27.07
2018-06-30T16:20:01.871Z,27.66
2018-06-30T16:22:30.984Z,28.60
2018-06-30T16:25:00.120Z,27.72
2018-06-30T16:27:29.233Z,27.38
2018-06-30T16:29:58.338Z,26.35
2018-06-30T16:32:27.505Z,26.80
2018-06-30T16:34:56.611Z,27.32
2018-06-30T16:37:25.709Z,27.15
2018-06-30T16:39:54.809Z,26.14
2018-06-30T16:42:23.921Z,25.62
2018-06-30T16:44:53.034Z,26.64
2018-06-30T16:47:22.141Z,26.51
2018-06-30T16:49:51.238Z,25.50
2018-06-30T16:52:20.349Z,24.93
2018-06-30T16:54:49.505Z,25.29
2018-06-30T16:57:18.604Z,24.63
2018-06-30T16:59:47.705Z,25.80
2018-06-30T17:02:16.805Z,25.76
2018-06-30T17:04:45.933Z,24.60
2018-06-30T17:07:15.048Z,23.77
2018-06-30T17:09:44.178Z,24.24
2018-06-30T17:12:13.282Z,23.14
2018-06-30T17:14:42.401Z,24.21
2018-06-30T17:17:11.514Z,23.56
2018-06-30T17:19:40.631Z,24.27
2018-06-30T17:22:09.729Z,23.73
2018-06-30T17:24:38.894Z,24.00
2018-06-30T17:27:07.999Z,22.55
2018-06-30T17:29:37.125Z,22.42
2018-06-30T17:32:06.286Z,23.59
2018-06-30T17:34:35.453Z,22.94
2018-06-30T17:37:04.605Z,22.92
2018-06-30T17:39:33.726Z,21.90
2018-06-30T17:42:02.862Z,22.65
2018-06-30T17:44:31.958Z,22.83
2018-06-30T17:47:01.085Z,22.41
2018-06-30T17:49:30.229Z,21.35
2018-06-30T17:51:59.340Z,22.17
2018-06-30T17:54:28.545Z,22.91
2018-06-30T17:56:57.705Z,21.41
2018-06-30T17:59:26.809Z,21.52
2018-06-30T18:01:55.945Z,21.88
2018-06-30T18:04:25.043Z,22.28
2018-06-30T18:06:54.150Z,20.68
2018-06-30T18:09:23.233Z,21.34
2018-06-30T18:11:52.425Z,21.66
2018-06-30T18:14:21.538Z,21.59
2018-06-30T18:16:50.650Z,22.07
2018-06-30T18:19:19.749Z,21.43
2018-06-30T18:21:48.864Z,22.24
2018-06-30T18:24:17.985Z,22.08
2018-06-30T18:26:47.097Z,22.27
2018-06-30T18:29:16.193Z,21.65
2018-06-30T18:31:45.317Z,22.20
2018-06-30T18:34:14.430Z,22.88
2018-06-30T18:36:43.537Z,22.70
2018-06-30T18:39:12.774Z,23.33
2018-06-30T18:41:41.817Z,22.76
2018-06-30T18:44:10.927Z,22.99
2018-06-30T18:46:40.192Z,23.36
2018-06-30T18:49:09.306Z,23.26
2018-06-30T18:51:38.557Z,22.12
2018-06-30T18:54:08.469Z,21.45
2018-06-30T18:56:37.621Z,22.47
2018-06-30T18:59:06.821Z,21.78
2018-06-30T19:01:35.965Z,22.76
2018-06-30T19:04:05.354Z,22.12
2018-06-30T19:06:34.593Z,22.58
2018-06-30T19:09:04.754Z,22.84
2018-06-30T19:11:33.889Z,22.38
2018-06-30T19:14:03.102Z,23.57
2018-06-30T19:16:32.309Z,22.26
2018-06-30T19:19:01.426Z,22.01
2018-06-30T19:21:30.861Z,21.65
2018-06-30T19:23:59.999Z,21.98
2018-06-30T19:26:29.153Z,23.53
2018-06-30T19:28:58.274Z,23.74
2018-06-30T19:31:27.406Z,23.90
2018-06-30T19:33:56.489Z,22.58
2018-06-30T19:36:25.601Z,23.23
2018-06-30T19:38:54.709Z,22.45
2018-06-30T19:41:23.825Z,22.77
2018-06-30T19:43:52.937Z,23.70
2018-06-30T19:46:22.038Z,23.31
2018-06-30T19:48:51.146Z,22.81
2018-06-30T19:51:20.262Z,23.29
2018-06-30T19:53:49.378Z,24.03
2018-06-30T19:56:18.505Z,22.63
2018-06-30T19:58:47.659Z,22.39
2018-06-30T20:01:16.783Z,22.96
2018-06-30T20:03:46.930Z,23.74
2018-06-30T20:06:16.078Z,23.49
2018-06-30T20:08:45.196Z,23.17
2018-06-30T20:11:14.330Z,23.87
2018-06-30T20:13:43.433Z,23.06
2018-06-30T20:16:12.570Z,22.72
2018-06-30T20:18:41.994Z,22.31
2018-06-30T20:21:11.160Z,23.26
2018-06-30T20:23:40.223Z,24.99
2018-06-30T20:26:09.371Z,23.45
2018-06-30T20:28:38.470Z,22.79
2018-06-30T20:31:07.578Z,22.44
2018-06-30T20:33:36.697Z,21.92
2018-06-30T20:36:05.840Z,22.76
2018-06-30T20:38:34.942Z,23.87
2018-06-30T20:41:04.041Z,23.23
2018-06-30T20:43:33.177Z,23.94
2018-06-30T20:46:02.289Z,23.91
2018-06-30T20:48:31.417Z,24.76
2018-06-30T20:51:00.512Z,24.33
2018-06-30T20:53:29.965Z,24.31
2018-06-30T20:55:59.073Z,23.62
2018-06-30T20:58:28.197Z,23.68
2018-06-30T21:00:57.293Z,23.84
2018-06-30T21:03:26.410Z,24.03
2018-06-30T21:05:55.501Z,24.53
2018-06-30T21:08:24.596Z,23.53
2018-06-30T21:10:53.734Z,23.54
2018-06-30T21:13:22.921Z,23.47
2018-06-30T21:15:52.021Z,23.06
2018-06-30T21:18:21.165Z,23.31
2018-06-30T21:20:50.378Z,24.33
2018-06-30T21:23:19.414Z,23.49
2018-06-30T21:25:48.534Z,23.89
2018-06-30T21:28:17.649Z,24.13
2018-06-30T21:30:46.802Z,24.86
2018-06-30T21:33:15.921Z,24.30
2018-06-30T21:35:45.051Z,25.36
2018-06-30T21:38:14.161Z,24.64
2018-06-30T21:40:43.250Z,25.66
2018-06-30T21:43:12.354Z,24.66
2018-06-30T21:45:41.449Z,25.07
2018-06-30T21:48:10.562Z,26.21
2018-06-30T21:50:39.737Z,26.44
2018-06-30T21:53:08.922Z,26.02
2018-06-30T21:55:38.030Z,25.74
2018-06-30T21:58:11.126Z,26.03
2018-06-30T22:00:50.526Z,26.40
2018-06-30T22:03:24.027Z,26.23
2018-06-30T22:05:54.686Z,25.86
2018-06-30T22:08:23.817Z,27.16
2018-06-30T22:10:53.037Z,25.76
2018-06-30T22:13:22.117Z,26.37
2018-06-30T22:15:51.317Z,25.62
2018-06-30T22:18:20.451Z,25.91
2018-06-30T22:20:49.561Z,26.22
2018-06-30T22:23:18.681Z,25.77
2018-06-30T22:25:47.823Z,26.60
2018-06-30T22:28:16.937Z,26.67
2018-06-30T22:30:46.062Z,26.13
2018-06-30T22:33:15.173Z,26.37
2018-06-30T22:35:44.269Z,26.39
2018-06-30T22:38:13.377Z,26.18
2018-06-30T22:40:42.469Z,27.25
2018-06-30T22:43:11.590Z,26.63
2018-06-30T22:45:40.689Z,27.03
2018-06-30T22:48:09.797Z,27.26
2018-06-30T22:50:38.906Z,27.50
2018-06-30T22:53:08.061Z,26.84
2018-06-30T22:55:37.173Z,27.70
2018-06-30T22:58:06.290Z,27.48
2018-06-30T23:00:35.415Z,26.76
2018-06-30T23:03:09.578Z,27.25
2018-06-30T23:05:39.218Z,27.82
2018-06-30T23:08:08.408Z,27.09
2018-06-30T23:10:37.551Z,27.55
2018-06-30T23:13:06.757Z,26.60
2018-06-30T23:15:35.878Z,28.05
2018-06-30T23:18:05.223Z,28.19
2018-06-30T23:20:34.323Z,28.08
2018-06-30T23:23:06.501Z,27.81
2018-06-30T23:25:36.181Z,28.58
2018-06-30T23:28:05.424Z,28.57
2018-06-30T23:30:34.830Z,28.41
2018-06-30T23:33:04.027Z,27.94
2018-06-30T23:35:33.785Z,28.46
2018-06-30T23:38:03.533Z,28.13
2018-06-30T23:40:32.662Z,28.32
2018-06-30T23:43:01.786Z,28.46
2018-06-30T23:45:30.894Z,28.97
2018-06-30T23:48:00.023Z,28.67
2018-06-30T23:50:29.145Z,28.77
2018-06-30T23:52:58.256Z,28.93
2018-06-30T23:55:27.389Z,29.42
2018-06-30T23:57:56.491Z,28.50
